Wautoma, WI

6:14 AM CDT on September 05, 2015 (GMT -0500)
Mt. Morris Township | | Change Station
CLOSE
Current Station
Personal Weather Station
Location: Wautoma, WI
Elevation: 912 ft
Nearby Weather Stations
Active Advisory: Special Statement

Elev 912 ft 44.08 °N, 89.21 °W | Updated 45 seconds ago

Scattered Clouds
Scattered Clouds
62.8 °F
Feels Like 62.8 °F
N
0.0
Wind Variable Wind from NE

Today
High -- | Low -- °F
--% Chance of Precip.
Yesterday
High -- | Low -- °F
Precip. -- in
6:24 AM 7:26 PM
Waning Gibbous, 49% visible
Pressure 30.07 in
Visibility 4.0 miles
Clouds Scattered Clouds 4600 ft
Dew Point 62 °F
Humidity 99%
Rainfall 0.00 in
Snow Depth Not available.
UV 0 out of 12
Pollen 9.80 out of 12
Air Quality Not available.
Flu Activity Not available.
SPECI KY50 051106Z AUTO 00000KT 4SM BR SCT046 17/17 A3007 RMK AO2 TSNO
Pressure 30.07 in
Visibility 4.0 miles
Clouds Scattered Clouds 4600 ft
Dew Point 62 °F
Humidity 99%
Rainfall 0.00 in
Snow Depth Not available.
UV 0 out of 12
Pollen 9.80 out of 12
Air Quality Not available.
Flu Activity Not available.
SPECI KY50 051106Z AUTO 00000KT 4SM BR SCT046 17/17 A3007 RMK AO2 TSNO

10-Day Weather Forecast

×

Almanac

Astronomy

Sep. 05, 2015 Rise Set
Actual Time
Civil Twilight
Nautical Twilight
Astronomical Twilight
Moon
Length of Visible Light
Length of Day
Tomorrow will be .
, % of the Moon is Illuminated

Today's Extremes

State Highs State Lows

Community

WunderPhotos

Upload Photos

1,852,445 photos uploaded!

WunderBlogs® & News

Nearby

Air Quality

  Air Quality AQ Index Pollutant
Not available.

Snow Depth

Station Depth Elevation

Earthquake Activity

City Distance Mag. Time & Date
Minimum magnitude displayed is 2.5.

Coastal Water Temperatures

Place Temperature

Stations

Nearby Weather Stations

Station Location Temp. Windchill Dew Point Humidity Wind Precip. Elev Updated Type
                   
Special Statement
Statement as of 3:45 AM CDT on September 05, 2015

... Patchy dense fog expected early this morning...

Abundant low level moisture combined with light winds and
mostly clear skies has resulted in patchy dense fog this morning
across northeast Wisconsin. Visibilities will be less than a
quarter mile in some areas... so drive with care and be ready to
slow down when driving in fog. Motorists are urged to exercise
caution... as visibilities can vary significanty in a very short
distance.


Kurimski

345 am CDT Sat Sep 5 2015

... Patchy dense fog expected early this morning...

Abundant low level moisture combined with light winds and
mostly clear skies has resulted in patchy dense fog this morning
across northeast Wisconsin. Visibilities will be less than a
quarter mile in some areas... so drive with care and be ready to
slow down when driving in fog. Motorists are urged to exercise
caution... as visibilities can vary significanty in a very short
distance.


Kurimski